Time;durP1;ratioP1;P1;durP2;ratioP2;P2;SDS_P1;SDS_P2;PMS_P1;PMS_P2;Temp;Humidity;BMP_temperature;BMP_pressure;BME280_temperature;BME280_humidity;BME280_pressure;Samples;Min_cycle;Max_cycle;Signal;HPM_P1;HPM_P2
2022/06/09 00:01:24;;;;;;;1999.90;999.90;;;;;;;14.92;100.00;69192.94;5072492;28;20235;-62
2022/06/09 00:03:57;;;;;;;1999.90;999.90;;;;;;;14.92;100.00;69192.53;5056282;28;20234;-61
2022/06/09 00:06:25;;;;;;;1999.90;999.90;;;;;;;14.91;100.00;69191.91;5072975;28;20231;-61
2022/06/09 00:08:52;;;;;;;1999.90;999.90;;;;;;;14.91;100.00;69190.91;5072284;28;20208;-54
2022/06/09 00:11:23;;;;;;;1999.90;999.90;;;;;;;14.90;100.00;69190.09;5072490;28;20193;-55
2022/06/09 00:13:49;;;;;;;1999.90;999.90;;;;;;;14.90;100.00;69189.81;5056308;28;20226;-51
2022/06/09 00:16:15;;;;;;;1999.90;999.90;;;;;;;14.90;100.00;69189.63;5056166;28;20189;-51
2022/06/09 00:18:42;;;;;;;1999.90;999.90;;;;;;;14.90;100.00;69190.34;5072439;28;20268;-51
2022/06/09 00:21:08;;;;;;;1999.90;999.90;;;;;;;14.91;100.00;69190.91;5055700;28;20243;-47
2022/06/09 00:23:33;;;;;;;1999.90;999.90;;;;;;;14.91;100.00;69192.00;5072429;28;20177;-46
2022/06/09 00:25:58;;;;;;;1999.90;999.90;;;;;;;14.92;100.00;69192.97;5055553;28;20239;-47
2022/06/09 00:28:24;;;;;;;1999.90;999.90;;;;;;;14.93;100.00;69194.16;5055551;28;20181;-61
2022/06/09 00:30:50;;;;;;;1999.90;999.90;;;;;;;14.93;100.00;69194.72;5055999;28;20185;-61
2022/06/09 00:33:16;;;;;;;1999.90;999.90;;;;;;;14.94;100.00;69195.09;5055536;28;20185;-62
2022/06/09 00:35:41;;;;;;;1999.90;999.90;;;;;;;14.94;100.00;69195.81;5072348;28;20192;-61
2022/06/09 00:38:07;;;;;;;1999.90;999.90;;;;;;;14.95;100.00;69196.22;5072882;28;20181;-60
2022/06/09 00:40:32;;;;;;;1999.90;999.90;;;;;;;14.95;100.00;69196.78;5055436;28;20181;-61
2022/06/09 00:43:00;;;;;;;1999.90;999.90;;;;;;;14.96;100.00;69197.59;5055274;28;20173;-61
2022/06/09 00:45:36;;;;;;;1999.90;999.90;;;;;;;14.97;100.00;69198.16;5055328;28;20205;-62
2022/06/09 00:48:05;;;;;;;1999.90;999.90;;;;;;;14.97;100.00;69198.81;5074772;28;20207;-56
2022/06/09 00:50:33;;;;;;;1999.90;999.90;;;;;;;14.98;100.00;69200.19;5058724;28;20197;-61
2022/06/09 00:53:04;;;;;;;1999.90;999.90;;;;;;;15.00;100.00;69201.66;5075865;28;20181;-62
2022/06/09 00:55:33;;;;;;;1999.90;999.90;;;;;;;15.01;100.00;69202.97;5075654;28;20192;-61
2022/06/09 00:58:08;;;;;;;1999.90;999.90;;;;;;;15.02;100.00;69203.91;5075719;28;20203;-62
2022/06/09 01:00:46;;;;;;;1999.90;999.90;;;;;;;15.03;100.00;69205.38;5058933;28;20188;-62
2022/06/09 01:03:12;;;;;;;1999.90;999.90;;;;;;;15.04;100.00;69206.13;5059185;28;20184;-62
2022/06/09 01:05:40;;;;;;;1999.90;999.90;;;;;;;15.05;100.00;69207.41;5058439;28;20251;-68
2022/06/09 01:08:08;;;;;;;1999.90;999.90;;;;;;;15.07;100.00;69209.25;5058452;28;20189;-69
2022/06/09 01:10:33;;;;;;;1999.90;999.90;;;;;;;15.08;100.00;69210.47;5075246;28;20199;-69
2022/06/09 01:12:58;;;;;;;1999.90;999.90;;;;;;;15.09;100.00;69211.97;5058756;28;20186;-70
2022/06/09 01:15:33;;;;;;;1999.90;999.90;;;;;;;15.11;100.00;69213.19;5058511;28;20280;-70
2022/06/09 01:18:17;;;;;;;1999.90;999.90;;;;;;;15.12;100.00;69214.13;5076150;28;20212;-69
2022/06/09 01:21:16;;;;;;;1999.90;999.90;;;;;;;15.12;100.00;69214.78;5058270;28;20193;-71
2022/06/09 01:23:48;;;;;;;1999.90;999.90;;;;;;;15.13;100.00;69215.63;5055609;28;20230;-61
2022/06/09 01:26:29;;;;;;;1999.90;999.90;;;;;;;15.14;100.00;69216.25;5058763;28;20244;-57
2022/06/09 01:29:33;;;;;;;1999.90;999.90;;;;;;;15.15;100.00;69217.72;5075230;28;20238;-59
2022/06/09 01:32:27;;;;;;;1999.90;999.90;;;;;;;15.15;100.00;69218.09;5074927;28;20199;-57
2022/06/09 01:35:19;;;;;;;1999.90;999.90;;;;;;;15.16;100.00;69218.50;5058642;28;20189;-57
2022/06/09 01:37:48;;;;;;;1999.90;999.90;;;;;;;15.16;100.00;69219.47;5058695;28;20193;-57
2022/06/09 01:40:16;;;;;;;1999.90;999.90;;;;;;;15.16;100.00;69219.19;5075131;28;20209;-57
2022/06/09 01:42:44;;;;;;;1999.90;999.90;;;;;;;15.16;100.00;69218.72;5075145;28;20192;-66
2022/06/09 01:45:24;;;;;;;1999.90;999.90;;;;;;;15.16;100.00;69219.00;5057741;28;20197;-68
2022/06/09 01:48:04;;;;;;;1999.90;999.90;;;;;;;15.16;100.00;69219.63;5075675;28;20207;-67
2022/06/09 01:50:42;;;;;;;1999.90;999.90;;;;;;;15.17;100.00;69219.81;5058424;28;20185;-68
2022/06/09 01:53:12;;;;;;;1999.90;999.90;;;;;;;15.17;100.00;69220.38;5058324;28;20185;-69
2022/06/09 01:55:42;;;;;;;1999.90;999.90;;;;;;;15.18;100.00;69221.47;5057810;28;20191;-68
2022/06/09 01:58:11;;;;;;;1999.90;999.90;;;;;;;15.18;100.00;69222.34;5058013;28;20219;-67
2022/06/09 02:00:38;;;;;;;1999.90;999.90;;;;;;;15.18;100.00;69223.31;5075003;28;20196;-60
2022/06/09 02:03:11;;;;;;;1999.90;999.90;;;;;;;15.18;100.00;69224.00;5074531;28;20196;-69
2022/06/09 02:05:42;;;;;;;1999.90;999.90;;;;;;;15.19;100.00;69224.63;5074484;28;20209;-72
2022/06/09 02:08:13;;;;;;;1999.90;999.90;;;;;;;15.19;100.00;69225.00;5074757;28;20185;-71
2022/06/09 02:10:41;;;;;;;1999.90;999.90;;;;;;;15.20;100.00;69225.50;5058336;28;20208;-74
2022/06/09 02:13:19;;;;;;;1999.90;999.90;;;;;;;15.20;100.00;69226.41;5057610;28;20276;-71
2022/06/09 02:15:49;;;;;;;1999.90;999.90;;;;;;;15.21;100.00;69227.38;5074447;28;20188;-70
2022/06/09 02:18:18;;;;;;;1999.90;999.90;;;;;;;15.22;100.00;69228.22;5057313;28;20257;-53
2022/06/09 02:21:20;;;;;;;1999.90;999.90;;;;;;;15.22;100.00;69228.94;5057583;28;20192;-63
2022/06/09 02:23:47;;;;;;;1999.90;999.90;;;;;;;15.23;100.00;69229.44;5057215;28;20180;-63
2022/06/09 02:26:13;;;;;;;1999.90;999.90;;;;;;;15.23;100.00;69229.38;5057223;28;20212;-62
2022/06/09 02:28:39;;;;;;;1999.90;999.90;;;;;;;15.24;100.00;69230.28;5057177;28;20212;-63
2022/06/09 02:31:04;;;;;;;1999.90;999.90;;;;;;;15.24;100.00;69230.72;5057506;28;20181;-63
2022/06/09 02:33:30;;;;;;;1999.90;999.90;;;;;;;15.24;100.00;69231.00;5057130;28;20273;-62
2022/06/09 02:35:55;;;;;;;1999.90;999.90;;;;;;;15.24;100.00;69230.84;5057258;28;20184;-68
2022/06/09 02:38:22;;;;;;;1999.90;999.90;;;;;;;15.25;100.00;69231.25;5057255;28;20185;-54
2022/06/09 02:40:48;;;;;;;1999.90;999.90;;;;;;;15.25;100.00;69231.44;5073794;28;20280;-68
2022/06/09 02:43:14;;;;;;;1999.90;999.90;;;;;;;15.24;100.00;69231.00;5057007;28;20236;-69
2022/06/09 02:45:41;;;;;;;1999.90;999.90;;;;;;;15.24;100.00;69230.56;5057031;28;20208;-70
2022/06/09 02:48:06;;;;;;;1999.90;999.90;;;;;;;15.23;100.00;69229.84;5056828;28;20193;-68
2022/06/09 02:50:32;;;;;;;1999.90;999.90;;;;;;;15.22;100.00;69229.19;5057300;28;20200;-68
2022/06/09 02:52:58;;;;;;;1999.90;999.90;;;;;;;15.21;100.00;69228.53;5056884;28;20185;-68
2022/06/09 02:55:24;;;;;;;1999.90;999.90;;;;;;;15.21;100.00;69228.03;5073829;28;20195;-45
2022/06/09 02:57:50;;;;;;;1999.90;999.90;;;;;;;15.20;100.00;69228.00;5073404;28;20201;-63
2022/06/09 03:00:16;;;;;;;1999.90;999.90;;;;;;;15.19;100.00;69227.16;5056832;28;20198;-63
2022/06/09 03:03:02;;;;;;;1999.90;999.90;;;;;;;15.18;100.00;69225.88;5057207;28;20287;-63
2022/06/09 03:05:30;;;;;;;1999.90;999.90;;;;;;;15.17;100.00;69224.25;5056231;28;20212;-63
2022/06/09 03:07:56;;;;;;;1999.90;999.90;;;;;;;15.16;100.00;69222.63;5056237;28;20220;-63
2022/06/09 03:10:21;;;;;;;1999.90;999.90;;;;;;;15.15;100.00;69221.34;5055729;28;20250;-62
2022/06/09 03:12:48;;;;;;;1999.90;999.90;;;;;;;15.15;100.00;69220.19;5056497;28;20220;-56
2022/06/09 03:15:16;;;;;;;1999.90;999.90;;;;;;;15.14;100.00;69219.00;5056875;28;20181;-47
2022/06/09 03:17:41;;;;;;;1999.90;999.90;;;;;;;15.13;100.00;69218.78;5056339;28;20205;-62
2022/06/09 03:20:12;;;;;;;1999.90;999.90;;;;;;;15.13;100.00;69218.22;5056323;28;20268;-61
2022/06/09 03:22:37;;;;;;;1999.90;999.90;;;;;;;15.13;100.00;69218.13;5073409;28;20276;-60
2022/06/09 03:25:03;;;;;;;1999.90;999.90;;;;;;;15.12;100.00;69218.00;5056800;28;20215;-61
2022/06/09 03:27:29;;;;;;;1999.90;999.90;;;;;;;15.12;100.00;69217.66;5056359;28;20287;-61
2022/06/09 03:29:54;;;;;;;1999.90;999.90;;;;;;;15.11;100.00;69216.91;5056493;28;20177;-61
2022/06/09 03:32:22;;;;;;;1999.90;999.90;;;;;;;15.11;100.00;69216.59;5056354;28;20180;-52
2022/06/09 03:34:48;;;;;;;1999.90;999.90;;;;;;;15.10;100.00;69216.38;5056834;28;20272;-54
2022/06/09 03:37:14;;;;;;;1999.90;999.90;;;;;;;15.10;100.00;69216.28;5056007;28;20247;-55
2022/06/09 03:39:39;;;;;;;1999.90;999.90;;;;;;;15.10;100.00;69216.59;5056103;28;20199;-56
2022/06/09 03:42:05;;;;;;;1999.90;999.90;;;;;;;15.10;100.00;69216.72;5056598;28;20177;-55
2022/06/09 03:44:30;;;;;;;1999.90;999.90;;;;;;;15.10;100.00;69217.16;5055961;28;20173;-56
2022/06/09 03:46:55;;;;;;;1999.90;999.90;;;;;;;15.11;100.00;69218.50;5056143;28;20212;-55
2022/06/09 03:49:21;;;;;;;1999.90;999.90;;;;;;;15.12;100.00;69219.34;5056204;28;20191;-61
2022/06/09 03:51:46;;;;;;;1999.90;999.90;;;;;;;15.13;100.00;69220.34;5056480;28;20314;-51
2022/06/09 03:54:13;;;;;;;1999.90;999.90;;;;;;;15.14;100.00;69221.63;5056074;28;20177;-49
2022/06/09 03:56:39;;;;;;;1999.90;999.90;;;;;;;15.14;100.00;69221.84;5056631;28;20185;-46
2022/06/09 03:59:05;;;;;;;1999.90;999.90;;;;;;;15.16;100.00;69223.34;5055758;28;20325;-48
2022/06/09 04:01:31;;;;;;;1999.90;999.90;;;;;;;15.17;100.00;69224.56;5055941;28;20181;-45
2022/06/09 04:03:57;;;;;;;1999.90;999.90;;;;;;;15.18;100.00;69225.81;5055696;28;20196;-45
2022/06/09 04:06:25;;;;;;;1999.90;999.90;;;;;;;15.20;100.00;69228.13;5055858;28;20205;-45
2022/06/09 04:08:51;;;;;;;1999.90;999.90;;;;;;;15.21;100.00;69230.25;5055799;28;20339;-60
2022/06/09 04:11:18;;;;;;;1999.90;999.90;;;;;;;15.24;100.00;69232.72;5055435;28;20204;-53
2022/06/09 04:13:43;;;;;;;1999.90;999.90;;;;;;;15.26;100.00;69235.28;5055654;28;20208;-57
2022/06/09 04:16:27;;;;;;;1999.90;999.90;;;;;;;15.27;100.00;69236.84;5055559;28;20246;-57
2022/06/09 04:18:54;;;;;;;1999.90;999.90;;;;;;;15.29;100.00;69238.97;5072551;28;20185;-55
2022/06/09 04:21:21;;;;;;;1999.90;999.90;;;;;;;15.30;100.00;69240.19;5057445;28;20188;-54
2022/06/09 04:23:47;;;;;;;1999.90;999.90;;;;;;;15.32;100.00;69241.78;5059729;28;20291;-52
2022/06/09 04:26:15;;;;;;;1999.90;999.90;;;;;;;15.33;100.00;69243.88;5059676;28;20335;-61
2022/06/09 04:28:41;;;;;;;1999.90;999.90;;;;;;;15.35;100.00;69245.97;5059560;28;20181;-61
2022/06/09 04:31:07;;;;;;;1999.90;999.90;;;;;;;15.38;100.00;69248.63;5059308;28;20243;-73
2022/06/09 04:33:32;;;;;;;1999.90;999.90;;;;;;;15.39;100.00;69250.59;5059950;28;20176;-69
2022/06/09 04:35:57;;;;;;;1999.90;999.90;;;;;;;15.41;100.00;69252.69;5058875;28;20191;-67
2022/06/09 04:38:23;;;;;;;1999.90;999.90;;;;;;;15.42;100.00;69254.16;5059190;28;20240;-68
2022/06/09 04:40:48;;;;;;;1999.90;999.90;;;;;;;15.43;100.00;69255.16;5058809;28;20180;-71
2022/06/09 04:43:13;;;;;;;1999.90;999.90;;;;;;;15.44;100.00;69256.44;5059073;28;20216;-71
2022/06/09 04:45:42;;;;;;;1999.90;999.90;;;;;;;15.45;100.00;69257.25;5058509;28;20247;-63
2022/06/09 04:48:09;;;;;;;1999.90;999.90;;;;;;;15.45;100.00;69257.81;5077048;28;20280;-63
2022/06/09 04:50:36;;;;;;;1999.90;999.90;;;;;;;15.46;100.00;69258.66;5075547;28;20181;-62
2022/06/09 04:53:02;;;;;;;1999.90;999.90;;;;;;;15.47;100.00;69259.16;5076057;28;20220;-62
2022/06/09 04:55:27;;;;;;;1999.90;999.90;;;;;;;15.48;100.00;69260.72;5059148;28;20190;-63
2022/06/09 04:57:53;;;;;;;1999.90;999.90;;;;;;;15.49;100.00;69262.09;5075350;28;20208;-61
2022/06/09 05:00:18;;;;;;;1999.90;999.90;;;;;;;15.50;100.00;69263.53;5058942;28;20212;-61
2022/06/09 05:02:44;;;;;;;1999.90;999.90;;;;;;;15.51;100.00;69265.16;5058766;28;20253;-67
2022/06/09 05:05:19;;;;;;;1999.90;999.90;;;;;;;15.52;100.00;69266.88;5058510;28;20185;-53
2022/06/09 05:07:44;;;;;;;1999.90;999.90;;;;;;;15.53;100.00;69267.91;5058621;28;20224;-57
2022/06/09 05:10:10;;;;;;;1999.90;999.90;;;;;;;15.55;100.00;69269.56;5058280;28;20330;-53
2022/06/09 05:12:35;;;;;;;1999.90;999.90;;;;;;;15.56;100.00;69271.00;5058839;28;20216;-52
2022/06/09 05:15:01;;;;;;;1999.90;999.90;;;;;;;15.57;100.00;69272.34;5058515;28;20185;-54
2022/06/09 05:17:26;;;;;;;1999.90;999.90;;;;;;;15.59;100.00;69274.63;5058805;28;20266;-51
2022/06/09 05:19:52;;;;;;;1999.90;999.90;;;;;;;15.60;100.00;69276.00;5058259;28;20242;-55
2022/06/09 05:22:17;;;;;;;1999.90;999.90;;;;;;;15.62;100.00;69277.69;5058423;28;20193;-47
2022/06/09 05:24:43;;;;;;;1999.90;999.90;;;;;;;15.64;100.00;69280.22;5058834;28;20196;-61
2022/06/09 05:27:08;;;;;;;1999.90;999.90;;;;;;;15.65;100.00;69281.91;5058561;28;20308;-61
2022/06/09 05:29:34;;;;;;;1999.90;999.90;;;;;;;15.67;100.00;69283.84;5058817;28;20181;-61
2022/06/09 05:32:01;;;;;;;1999.90;999.90;;;;;;;15.69;100.00;69286.16;5057745;28;20195;-63
2022/06/09 05:34:26;;;;;;;1999.90;999.90;;;;;;;15.70;100.00;69288.25;5058297;28;20258;-61
2022/06/09 05:36:52;;;;;;;1999.90;999.90;;;;;;;15.72;100.00;69290.09;5058216;28;20189;-63
2022/06/09 05:44:53;;;;;;;1999.90;999.90;;;;;;;15.77;100.00;69296.03;5076102;28;20199;-47
2022/06/09 05:47:21;;;;;;;1999.90;999.90;;;;;;;15.78;100.00;69296.78;5057726;28;20213;-48
2022/06/09 05:49:50;;;;;;;1999.90;999.90;;;;;;;15.79;100.00;69297.50;5058027;28;20231;-46
2022/06/09 05:52:25;;;;;;;1999.90;999.90;;;;;;;15.80;100.00;69298.53;5074617;28;20185;-45
2022/06/09 05:54:52;;;;;;;1999.90;999.90;;;;;;;15.80;100.00;69299.06;5058042;28;20251;-46
2022/06/09 05:57:21;;;;;;;1999.90;999.90;;;;;;;15.81;100.00;69300.44;5058344;28;20246;-44
2022/06/09 05:59:48;;;;;;;1999.90;999.90;;;;;;;15.82;100.00;69301.53;5057948;28;20216;-52
2022/06/09 06:02:15;;;;;;;1999.90;999.90;;;;;;;15.82;100.00;69301.88;5058010;28;20239;-53
2022/06/09 06:04:41;;;;;;;1999.90;999.90;;;;;;;15.82;100.00;69302.31;5057717;28;20200;-54
2022/06/09 06:07:06;;;;;;;1999.90;999.90;;;;;;;15.84;100.00;69304.88;5057806;28;20209;-54
2022/06/09 06:09:32;;;;;;;1999.90;999.90;;;;;;;15.86;100.00;69307.91;5058120;28;20193;-55
2022/06/09 06:11:58;;;;;;;1999.90;999.90;;;;;;;15.89;100.00;69310.69;5057573;28;20185;-52
2022/06/09 06:14:23;;;;;;;1999.90;999.90;;;;;;;15.91;100.00;69312.81;5057726;28;20189;-53
2022/06/09 06:16:50;;;;;;;1999.90;999.90;;;;;;;15.92;100.00;69314.56;5057686;28;20205;-53
2022/06/09 06:19:17;;;;;;;1999.90;999.90;;;;;;;15.93;100.00;69315.84;5057857;28;20189;-49
2022/06/09 06:21:44;;;;;;;1999.90;999.90;;;;;;;15.93;100.00;69315.16;5057527;28;20181;-45
2022/06/09 06:24:11;;;;;;;1999.90;999.90;;;;;;;15.93;100.00;69314.59;5057336;28;20185;-48
2022/06/09 06:26:37;;;;;;;1999.90;999.90;;;;;;;15.94;100.00;69315.44;5057683;28;20299;-50
2022/06/09 06:29:04;;;;;;;1999.90;999.90;;;;;;;15.95;100.00;69317.91;5057467;28;20189;-51
2022/06/09 06:31:30;;;;;;;1999.90;999.90;;;;;;;15.98;100.00;69320.03;5073872;28;20272;-47
2022/06/09 06:33:55;;;;;;;1999.90;999.90;;;;;;;16.01;100.00;69323.31;5057445;28;20213;-49
2022/06/09 06:36:21;;;;;;;1999.90;999.90;;;;;;;16.04;100.00;69327.03;5057504;28;20189;-65
2022/06/09 06:38:47;;;;;;;1999.90;999.90;;;;;;;16.08;100.00;69331.66;5057249;28;20193;-59
2022/06/09 06:41:13;;;;;;;1999.90;999.90;;;;;;;16.12;100.00;69334.91;5057013;28;20186;-58
2022/06/09 06:43:39;;;;;;;1999.90;999.90;;;;;;;16.14;100.00;69337.97;5057291;28;20192;-59
2022/06/09 06:46:05;;;;;;;1999.90;999.90;;;;;;;16.17;100.00;69340.91;5073234;28;20225;-59
2022/06/09 06:48:32;;;;;;;1999.90;999.90;;;;;;;16.21;100.00;69345.44;5057112;28;20216;-59
2022/06/09 06:50:58;;;;;;;1999.90;999.90;;;;;;;16.25;100.00;69350.34;5057005;28;20193;-59
2022/06/09 06:53:23;;;;;;;1999.90;999.90;;;;;;;16.30;100.00;69356.78;5056898;28;20189;-55
2022/06/09 06:55:48;;;;;;;1999.90;999.90;;;;;;;16.37;100.00;69364.28;5057073;28;20225;-59
2022/06/09 06:58:14;;;;;;;1999.90;999.90;;;;;;;16.46;100.00;69373.66;5056896;28;20188;-60
2022/06/09 07:00:39;;;;;;;1999.90;999.90;;;;;;;16.54;100.00;69382.53;5057071;28;20196;-59
2022/06/09 07:03:07;;;;;;;1999.90;999.90;;;;;;;16.62;100.00;69392.22;5056875;28;20184;-59
2022/06/09 07:05:33;;;;;;;1999.90;999.90;;;;;;;16.71;100.00;69402.72;5056660;28;20212;-60
2022/06/09 07:07:59;;;;;;;1999.90;999.90;;;;;;;16.81;100.00;69414.25;5056821;28;20227;-60
2022/06/09 07:10:24;;;;;;;1999.90;999.90;;;;;;;16.92;100.00;69427.09;5056653;28;20228;-60
2022/06/09 07:12:50;;;;;;;1999.90;999.90;;;;;;;17.00;100.00;69436.63;5056705;28;20250;-60
2022/06/09 07:15:16;;;;;;;1999.90;999.90;;;;;;;17.09;100.00;69447.41;5056966;28;20196;-66
2022/06/09 07:17:42;;;;;;;1999.90;999.90;;;;;;;17.21;100.00;69460.09;5056479;28;20211;-65
2022/06/09 07:20:10;;;;;;;1999.90;999.90;;;;;;;17.33;100.00;69474.63;5056400;28;20200;-66
2022/06/09 07:22:36;;;;;;;1999.90;999.90;;;;;;;17.47;100.00;69489.19;5056704;28;20219;-65
2022/06/09 07:25:02;;;;;;;1999.90;999.90;;;;;;;17.59;100.00;69503.34;5056347;28;20253;-67
2022/06/09 07:27:27;;;;;;;1999.90;999.90;;;;;;;17.69;100.00;69514.63;5056778;28;20212;-67
2022/06/09 07:29:53;;;;;;;1999.90;999.90;;;;;;;17.80;100.00;69527.97;5056233;28;20189;-48
2022/06/09 07:32:18;;;;;;;1999.90;999.90;;;;;;;17.92;100.00;69541.59;5056555;28;20269;-62
2022/06/09 07:34:44;;;;;;;1999.90;999.90;;;;;;;18.04;100.00;69555.38;5056273;28;20215;-63
2022/06/09 07:37:09;;;;;;;1999.90;999.90;;;;;;;18.16;100.00;69569.44;5056688;28;20185;-64
2022/06/09 07:39:35;;;;;;;1999.90;999.90;;;;;;;18.28;100.00;69582.59;5056198;28;20228;-62
2022/06/09 07:42:01;;;;;;;1999.90;999.90;;;;;;;18.39;100.00;69594.59;5056072;28;20189;-63
2022/06/09 07:44:27;;;;;;;1999.90;999.90;;;;;;;18.50;100.00;69607.47;5056256;28;20185;-62
2022/06/09 07:46:52;;;;;;;1999.90;999.90;;;;;;;18.65;100.00;69624.94;5056569;28;20216;-57
2022/06/09 07:49:18;;;;;;;1999.90;999.90;;;;;;;18.84;100.00;69647.06;5056430;28;20188;-47
2022/06/09 07:51:43;;;;;;;1999.90;999.90;;;;;;;19.03;100.00;69669.25;5056730;28;20185;-65
2022/06/09 07:54:09;;;;;;;1999.90;999.90;;;;;;;19.19;100.00;69686.84;5056100;28;20189;-64
2022/06/09 07:56:34;;;;;;;1999.90;999.90;;;;;;;19.31;100.00;69700.72;5055644;28;20278;-64
2022/06/09 07:59:06;;;;;;;1999.90;999.90;;;;;;;19.37;100.00;69707.00;5055920;28;20196;-64
2022/06/09 08:01:31;;;;;;;1999.90;999.90;;;;;;;19.38;100.00;69708.91;5056273;28;20184;-64
2022/06/09 08:03:57;;;;;;;1999.90;999.90;;;;;;;19.32;100.00;69702.41;5055797;28;20204;-64
2022/06/09 08:06:23;;;;;;;1999.90;999.90;;;;;;;19.21;100.00;69689.94;5056200;28;20200;-69
2022/06/09 08:08:50;;;;;;;1999.90;999.90;;;;;;;19.04;100.00;69671.41;5055805;28;20251;-62
2022/06/09 08:11:15;;;;;;;1999.90;999.90;;;;;;;18.87;100.00;69652.28;5072401;28;20181;-53
2022/06/09 08:13:41;;;;;;;1999.90;999.90;;;;;;;18.69;100.00;69631.25;5055570;28;20188;-52
2022/06/09 08:16:07;;;;;;;1999.90;999.90;;;;;;;18.50;100.00;69610.75;5055818;28;20185;-51
2022/06/09 08:18:33;;;;;;;1999.90;999.90;;;;;;;18.32;100.00;69590.16;5072871;28;20185;-51
2022/06/09 08:20:58;;;;;;;1999.90;999.90;;;;;;;18.15;100.00;69570.75;5055475;28;20191;-54
2022/06/09 08:23:26;;;;;;;1999.90;999.90;;;;;;;17.98;100.00;69551.66;5055653;28;20188;-52
2022/06/09 08:25:54;;;;;;;1999.90;999.90;;;;;;;17.82;100.00;69533.59;5055530;28;20212;-52
2022/06/09 08:28:20;;;;;;;1999.90;999.90;;;;;;;17.67;100.00;69516.91;5055479;28;20188;-49
2022/06/09 08:30:49;;;;;;;1999.90;999.90;;;;;;;17.52;100.00;69499.44;5071814;28;20288;-53
2022/06/09 08:33:15;;;;;;;1999.90;999.90;;;;;;;17.39;100.00;69484.63;5055614;28;20193;-51
2022/06/09 08:35:41;;;;;;;1999.90;999.90;;;;;;;17.27;100.00;69471.09;5055715;28;20193;-49
2022/06/09 08:38:07;;;;;;;1999.90;999.90;;;;;;;17.16;100.00;69458.19;5055342;28;20339;-49
2022/06/09 08:40:54;;;;;;;1999.90;999.90;;;;;;;17.07;100.00;69448.06;5055176;28;20197;-51
2022/06/09 08:43:58;;;;;;;1999.90;999.90;;;;;;;16.99;100.00;69438.53;5055801;28;20250;-63
2022/06/09 08:46:33;;;;;;;1999.90;999.90;;;;;;;16.92;100.00;69430.97;4995309;28;20214;-69
2022/06/09 08:49:02;;;;;;;1999.90;999.90;;;;;;;16.87;100.00;69425.03;5012358;28;20265;-67
2022/06/09 08:51:38;;;;;;;1999.90;999.90;;;;;;;16.82;100.00;69419.69;5028568;28;20301;-69
2022/06/09 08:54:19;;;;;;;1999.90;999.90;;;;;;;16.78;100.00;69415.06;5055830;28;20188;-66
2022/06/09 08:56:46;;;;;;;1999.90;999.90;;;;;;;16.74;100.00;69411.06;5071971;28;20208;-67
2022/06/09 08:59:23;;;;;;;1999.90;999.90;;;;;;;16.71;100.00;69407.63;5072215;28;20219;-65
2022/06/09 09:01:53;;;;;;;1999.90;999.90;;;;;;;16.67;100.00;69402.91;5071838;28;20315;-54
2022/06/09 09:04:26;;;;;;;1999.90;999.90;;;;;;;16.64;100.00;69399.56;5055343;28;20196;-59
2022/06/09 09:07:23;;;;;;;1999.90;999.90;;;;;;;16.62;100.00;69397.63;5055554;28;20210;-68
2022/06/09 09:09:48;;;;;;;1999.90;999.90;;;;;;;16.61;100.00;69396.41;5059429;28;20249;-70
2022/06/09 09:12:48;;;;;;;1999.90;999.90;;;;;;;16.60;100.00;69395.50;5058668;28;20188;-66
2022/06/09 09:15:58;;;;;;;1999.90;999.90;;;;;;;16.60;100.00;69395.41;5058861;28;20185;-68
2022/06/09 09:18:38;;;;;;;1999.90;999.90;;;;;;;16.60;100.00;69395.22;5017827;28;20250;-69
2022/06/09 09:21:20;;;;;;;1999.90;999.90;;;;;;;16.60;100.00;69395.84;5018269;28;20213;-66
2022/06/09 09:24:00;;;;;;;1999.90;999.90;;;;;;;16.61;100.00;69396.41;5046738;28;20214;-67
2022/06/09 09:26:29;;;;;;;1999.90;999.90;;;;;;;16.62;100.00;69398.25;5058405;28;20208;-67
2022/06/09 09:29:01;;;;;;;1999.90;999.90;;;;;;;16.64;100.00;69400.19;5058205;28;20189;-66
2022/06/09 09:31:44;;;;;;;1999.90;999.90;;;;;;;16.66;100.00;69402.31;5058550;28;20231;-66
2022/06/09 09:34:16;;;;;;;1999.90;999.90;;;;;;;16.69;100.00;69405.72;5058708;28;20195;-64
2022/06/09 09:36:47;;;;;;;1999.90;999.90;;;;;;;16.72;100.00;69410.03;5058536;28;20191;-65
2022/06/09 09:39:19;;;;;;;1999.90;999.90;;;;;;;16.76;100.00;69413.88;5074988;28;20185;-64
2022/06/09 09:41:46;;;;;;;1999.90;999.90;;;;;;;16.80;100.00;69417.75;5074615;28;20224;-60
2022/06/09 09:44:22;;;;;;;1999.90;999.90;;;;;;;16.84;100.00;69421.88;5058143;28;20197;-59
2022/06/09 09:46:52;;;;;;;1999.90;999.90;;;;;;;16.88;100.00;69426.44;5074898;28;20205;-60
2022/06/09 09:49:23;;;;;;;1999.90;999.90;;;;;;;16.93;100.00;69432.22;5057792;28;20249;-59
2022/06/09 09:51:48;;;;;;;1999.90;999.90;;;;;;;16.97;100.00;69437.50;5058289;28;20200;-59
2022/06/09 09:54:23;;;;;;;1999.90;999.90;;;;;;;17.03;100.00;69443.34;5058251;28;20193;-59
2022/06/09 09:57:02;;;;;;;1999.90;999.90;;;;;;;17.07;100.00;69448.63;5057856;28;20329;-51
2022/06/09 09:59:28;;;;;;;1999.90;999.90;;;;;;;17.12;100.00;69453.69;5057961;28;20216;-65
2022/06/09 10:10:38;;;;;;;1999.90;999.90;;;;;;;17.33;100.00;69477.41;4994467;28;20222;-62
2022/06/09 10:13:14;;;;;;;1999.90;999.90;;;;;;;17.37;100.00;69482.28;5024615;28;20227;-63
2022/06/09 10:15:42;;;;;;;1999.90;999.90;;;;;;;17.39;100.00;69484.75;5058290;28;20185;-62
2022/06/09 10:18:18;;;;;;;1999.90;999.90;;;;;;;17.36;100.00;69482.41;5057982;28;20213;-67
2022/06/09 10:21:08;;;;;;;1999.90;999.90;;;;;;;17.32;100.00;69477.34;5057883;28;20184;-68
2022/06/09 10:23:48;;;;;;;1999.90;999.90;;;;;;;17.26;100.00;69470.59;5057441;28;20234;-68
2022/06/09 10:26:27;;;;;;;1999.90;999.90;;;;;;;17.20;100.00;69463.03;5058203;28;20197;-68
2022/06/09 10:28:56;;;;;;;1999.90;999.90;;;;;;;17.14;100.00;69456.19;5057738;28;20203;-69
2022/06/09 10:31:30;;;;;;;1999.90;999.90;;;;;;;17.09;100.00;69450.84;5057909;28;20185;-68
2022/06/09 10:34:26;;;;;;;1999.90;999.90;;;;;;;17.06;100.00;69446.50;5057400;28;20271;-69
2022/06/09 10:37:13;;;;;;;1999.90;999.90;;;;;;;17.03;100.00;69443.56;5056814;28;20272;-69
2022/06/09 10:39:47;;;;;;;1999.90;999.90;;;;;;;17.02;100.00;69441.88;5057820;28;20200;-67
2022/06/09 10:42:50;;;;;;;1999.90;999.90;;;;;;;17.01;100.00;69441.06;5057101;28;20188;-68
2022/06/09 10:45:40;;;;;;;1999.90;999.90;;;;;;;17.01;100.00;69441.31;5057498;28;20231;-68
2022/06/09 10:56:49;;;;;;;1999.90;999.90;;;;;;;16.96;100.00;69436.22;5075285;28;20314;-57
2022/06/09 10:59:27;;;;;;;1999.90;999.90;;;;;;;16.94;100.00;69433.16;5057093;28;20185;-55
2022/06/09 11:01:53;;;;;;;1999.90;999.90;;;;;;;16.92;100.00;69431.84;5057418;28;20243;-54
2022/06/09 11:04:19;;;;;;;1999.90;999.90;;;;;;;16.92;100.00;69431.44;5056733;28;20185;-55
2022/06/09 11:07:11;;;;;;;1999.90;999.90;;;;;;;16.92;100.00;69431.72;5073335;28;20212;-53
2022/06/09 11:09:45;;;;;;;1999.90;999.90;;;;;;;16.92;100.00;69431.66;5074688;28;20178;-54
2022/06/09 11:12:38;;;;;;;1999.90;999.90;;;;;;;16.93;100.00;69433.13;5056589;28;20193;-68
2022/06/09 11:15:37;;;;;;;1999.90;999.90;;;;;;;16.95;100.00;69435.41;5057048;28;20187;-63
2022/06/09 11:18:08;;;;;;;1999.90;999.90;;;;;;;16.97;100.00;69437.97;5056742;28;20354;-64
2022/06/09 11:21:11;;;;;;;1999.90;999.90;;;;;;;17.00;100.00;69441.31;5056431;28;20238;-63
2022/06/09 11:24:11;;;;;;;1999.90;999.90;;;;;;;17.04;100.00;69446.31;5056621;28;20192;-62